Osceola, Virginia
Current Conditions -  °F | °C
As of 8:15 PM on Thursday 27 Nov 2014 (Local Time) from KVJI Reporting Station
Overcast Overcast  
Wind Chill: 23°   Ceiling: 2500
Heat Index: 31°   Visibility: 10mi
Dew Point: 23°   Wind: 8mph
Humidity: 74%   Direction: 350°N
Pressure: 30.3"   Gusts: NA
Location:  36.7393°N, 82.0092°W
Report Text: KVJI 280115Z AUTO 35007KT 10SM SCT016 OVC025 M01/M05 A3030 RMK AO2 T10081050
Loading
Personal Weather Stations






























Interactive Weather Map New forecast layout! Learn more

10-Day Weather Forecast

Advertisements
Track Severe Weather on mobile